createdAt,value
2023-04-05T00:00:32.305Z,0.42
2023-04-05T00:01:53.183Z,0.46
2023-04-05T00:02:32.129Z,0.40
2023-04-05T00:03:32.094Z,0.47
2023-04-05T00:04:32.033Z,0.43
2023-04-05T00:05:31.860Z,0.47
2023-04-05T00:06:31.798Z,0.47
2023-04-05T00:07:52.662Z,0.49
2023-04-05T00:08:31.607Z,0.36
2023-04-05T00:09:31.512Z,0.45
2023-04-05T00:10:31.437Z,0.40
2023-04-05T00:11:31.336Z,0.40
2023-04-05T00:12:31.254Z,0.40
2023-04-05T00:13:52.155Z,0.46
2023-04-05T00:14:31.084Z,0.42
2023-04-05T00:15:30.988Z,0.46
2023-04-05T00:16:30.981Z,0.47
2023-04-05T00:17:30.852Z,0.43
2023-04-05T00:18:30.732Z,0.49
2023-04-05T00:19:51.638Z,0.43
2023-04-05T00:20:30.563Z,0.34
2023-04-05T00:21:30.471Z,0.45
2023-04-05T00:22:30.385Z,0.31
2023-04-05T00:23:30.294Z,0.46
2023-04-05T00:24:30.211Z,0.39
2023-04-05T00:25:51.108Z,0.45
2023-04-05T00:26:30.037Z,0.34
2023-04-05T00:27:29.951Z,0.31
2023-04-05T00:28:29.866Z,0.43
2023-04-05T00:29:29.781Z,0.35
2023-04-05T00:30:29.723Z,0.32
2023-04-05T00:31:50.601Z,0.32
2023-04-05T00:32:29.537Z,0.34
2023-04-05T00:33:29.428Z,0.36
2023-04-05T00:34:29.351Z,0.40
2023-04-05T00:35:29.270Z,0.27
2023-04-05T00:36:29.178Z,0.31
2023-04-05T00:37:50.058Z,0.28
2023-04-05T00:38:29.005Z,0.32
2023-04-05T00:39:28.909Z,0.35
2023-04-05T00:40:28.824Z,0.35
2023-04-05T00:41:28.733Z,0.36
2023-04-05T00:42:28.654Z,0.31
2023-04-05T00:43:49.540Z,0.16
2023-04-05T00:44:28.483Z,0.21
2023-04-05T00:45:28.392Z,0.24
2023-04-05T00:46:28.400Z,0.17
2023-04-05T00:47:28.242Z,0.24
2023-04-05T00:48:28.133Z,0.21
2023-04-05T00:49:49.015Z,0.25
2023-04-05T00:50:27.964Z,0.24
2023-04-05T00:51:27.864Z,0.16
2023-04-05T00:52:27.790Z,0.07
2023-04-05T00:53:27.696Z,0.03
2023-04-05T00:54:27.619Z,0.09
2023-04-05T00:55:48.504Z,0.04
2023-04-05T00:56:27.441Z,0.01
2023-04-05T00:57:27.347Z,0.03
2023-04-05T00:58:27.275Z,-0.01
2023-04-05T00:59:27.220Z,0.01
2023-04-05T01:00:27.089Z,-0.01
2023-04-05T01:01:47.990Z,-0.01
2023-04-05T01:02:26.923Z,0.01
2023-04-05T01:03:26.816Z,-0.05
2023-04-05T01:04:26.794Z,0.06
2023-04-05T01:05:26.648Z,0.07
2023-04-05T01:06:26.572Z,-0.02
2023-04-05T01:07:47.459Z,-0.08
2023-04-05T01:08:26.391Z,-0.07
2023-04-05T01:09:26.297Z,-0.11
2023-04-05T01:10:26.212Z,-0.11
2023-04-05T01:11:26.128Z,-0.17
2023-04-05T01:12:26.044Z,-0.17
2023-04-05T01:13:46.962Z,-0.20
2023-04-05T01:14:25.870Z,-0.25
2023-04-05T01:15:25.771Z,-0.11
2023-04-05T01:16:25.687Z,-0.19
2023-04-05T01:17:25.636Z,-0.15
2023-04-05T01:18:25.513Z,-0.19
2023-04-05T01:19:46.399Z,-0.17
2023-04-05T01:20:25.348Z,-0.20
2023-04-05T01:21:25.257Z,-0.20
2023-04-05T01:22:25.180Z,-0.26
2023-04-05T01:23:25.070Z,-0.28
2023-04-05T01:24:24.994Z,-0.30
2023-04-05T01:25:45.880Z,-0.35
2023-04-05T01:26:24.816Z,-0.33
2023-04-05T01:27:24.733Z,-0.33
2023-04-05T01:28:24.676Z,-0.29
2023-04-05T01:29:24.557Z,-0.41
2023-04-05T01:30:24.468Z,-0.37
2023-04-05T01:31:45.388Z,-0.40
2023-04-05T01:32:24.301Z,-0.44
2023-04-05T01:33:24.203Z,-0.40
2023-04-05T01:34:24.122Z,-0.29
2023-04-05T01:35:24.035Z,-0.30
2023-04-05T01:36:24.006Z,-0.41
2023-04-05T01:37:44.842Z,-0.40
2023-04-05T01:38:23.773Z,-0.44
2023-04-05T01:39:23.680Z,-0.50
2023-04-05T01:40:23.606Z,-0.56
2023-04-05T01:41:23.516Z,-0.56
2023-04-05T01:42:23.430Z,-0.51
2023-04-05T01:43:44.322Z,-0.62
2023-04-05T01:44:23.248Z,-0.61
2023-04-05T01:45:23.157Z,-0.66
2023-04-05T01:46:23.118Z,-0.65
2023-04-05T01:47:23.001Z,-0.66
2023-04-05T01:48:22.901Z,-0.68
2023-04-05T01:49:43.795Z,-0.71
2023-04-05T01:50:22.733Z,-0.68
2023-04-05T01:51:22.638Z,-0.61
2023-04-05T01:52:22.553Z,-0.65
2023-04-05T01:53:22.459Z,-0.66
2023-04-05T01:54:22.403Z,-0.72
2023-04-05T01:55:43.267Z,-0.74
2023-04-05T01:56:22.208Z,-0.71
2023-04-05T01:57:22.115Z,-0.69
2023-04-05T01:58:22.037Z,-0.65
2023-04-05T01:59:22.047Z,-0.66
2023-04-05T02:00:21.847Z,-0.79
2023-04-05T02:01:42.743Z,-0.76
2023-04-05T02:02:21.681Z,-0.96
2023-04-05T02:03:21.688Z,-1.01
2023-04-05T02:04:21.508Z,-1.02
2023-04-05T02:05:21.437Z,-1.05
2023-04-05T02:06:21.335Z,-1.16
2023-04-05T02:07:42.211Z,-1.19
2023-04-05T02:08:21.154Z,-1.11
2023-04-05T02:09:21.058Z,-1.14
2023-04-05T02:10:20.980Z,-1.14
2023-04-05T02:11:20.891Z,-1.14
2023-04-05T02:12:20.801Z,-1.16
2023-04-05T02:13:41.705Z,-1.06
2023-04-05T02:14:20.627Z,-1.03
2023-04-05T02:15:20.543Z,-1.03
2023-04-05T02:16:20.483Z,-1.03
2023-04-05T02:17:20.362Z,-0.96
2023-04-05T02:18:20.280Z,-1.01
2023-04-05T02:19:41.249Z,-0.99
2023-04-05T02:20:20.101Z,-1.01
2023-04-05T02:21:20.018Z,-0.99
2023-04-05T02:22:19.925Z,-0.91
2023-04-05T02:23:19.844Z,-1.02
2023-04-05T02:24:19.754Z,-0.91
2023-04-05T02:25:40.647Z,-0.87
2023-04-05T02:26:19.582Z,-1.01
2023-04-05T02:27:19.491Z,-0.91
2023-04-05T02:28:19.401Z,-1.01
2023-04-05T02:29:19.322Z,-1.05
2023-04-05T02:30:19.230Z,-1.01
2023-04-05T02:31:40.164Z,-0.99
2023-04-05T02:32:19.055Z,-1.01
2023-04-05T02:33:19.103Z,-1.06
2023-04-05T02:34:18.878Z,-1.03
2023-04-05T02:35:18.812Z,-1.11
2023-04-05T02:36:18.713Z,-1.02
2023-04-05T02:37:39.594Z,-1.06
2023-04-05T02:38:18.529Z,-1.17
2023-04-05T02:39:18.439Z,-1.16
2023-04-05T02:40:18.358Z,-1.22
2023-04-05T02:41:18.264Z,-1.19
2023-04-05T02:42:18.188Z,-1.11
2023-04-05T02:43:39.073Z,-1.09
2023-04-05T02:44:18.009Z,-1.19
2023-04-05T02:45:17.912Z,-1.14
2023-04-05T02:46:17.879Z,-1.20
2023-04-05T02:47:17.740Z,-1.20
2023-04-05T02:48:17.654Z,-1.37
2023-04-05T02:49:38.541Z,-1.23
2023-04-05T02:50:17.484Z,-1.26
2023-04-05T02:51:17.385Z,-1.26
2023-04-05T02:52:17.302Z,-1.38
2023-04-05T02:53:17.328Z,-1.40
2023-04-05T02:54:17.122Z,-1.44
2023-04-05T02:55:38.008Z,-1.40
2023-04-05T02:56:16.966Z,-1.38
2023-04-05T02:57:16.858Z,-1.38
2023-04-05T02:58:16.776Z,-1.42
2023-04-05T02:59:16.699Z,-1.38
2023-04-05T03:00:16.602Z,-1.40
2023-04-05T03:01:37.522Z,-1.40
2023-04-05T03:02:16.424Z,-1.27
2023-04-05T03:03:16.434Z,-1.22
2023-04-05T03:04:16.250Z,-1.23
2023-04-05T03:05:16.164Z,-1.27
2023-04-05T03:06:16.073Z,-1.30
2023-04-05T03:07:36.955Z,-1.23
2023-04-05T03:08:15.896Z,-1.23
2023-04-05T03:09:15.878Z,-1.23
2023-04-05T03:10:15.723Z,-1.27
2023-04-05T03:11:15.628Z,-1.24
2023-04-05T03:12:15.549Z,-1.32
2023-04-05T03:13:36.437Z,-1.40
2023-04-05T03:14:15.377Z,-1.47
2023-04-05T03:15:15.278Z,-1.55
2023-04-05T03:16:15.218Z,-1.59
2023-04-05T03:17:15.102Z,-1.53
2023-04-05T03:18:15.035Z,-1.58
2023-04-05T03:19:35.902Z,-1.62
2023-04-05T03:20:14.840Z,-1.65
2023-04-05T03:21:14.777Z,-1.60
2023-04-05T03:22:14.690Z,-1.70
2023-04-05T03:23:14.580Z,-1.68
2023-04-05T03:24:14.499Z,-1.60
2023-04-05T03:25:35.382Z,-1.73
2023-04-05T03:26:14.320Z,-1.68
2023-04-05T03:27:14.231Z,-1.68
2023-04-05T03:28:14.154Z,-1.65
2023-04-05T03:29:14.058Z,-1.70
2023-04-05T03:30:13.972Z,-1.70
2023-04-05T03:31:34.914Z,-1.76
2023-04-05T03:32:13.788Z,-1.78
2023-04-05T03:33:13.708Z,-1.80
2023-04-05T03:34:13.621Z,-1.76
2023-04-05T03:35:13.533Z,-1.71
2023-04-05T03:36:13.437Z,-1.70
2023-04-05T03:37:34.327Z,-1.73
2023-04-05T03:38:13.269Z,-1.73
2023-04-05T03:39:13.174Z,-1.68
2023-04-05T03:40:13.090Z,-1.71
2023-04-05T03:41:12.992Z,-1.70
2023-04-05T03:42:12.909Z,-1.73
2023-04-05T03:43:33.810Z,-1.68
2023-04-05T03:44:12.735Z,-1.70
2023-04-05T03:45:12.646Z,-1.73
2023-04-05T03:46:12.588Z,-1.62
2023-04-05T03:47:12.477Z,-1.70
2023-04-05T03:48:12.378Z,-1.70
2023-04-05T03:49:33.281Z,-1.68
2023-04-05T03:50:12.202Z,-1.68
2023-04-05T03:51:12.114Z,-1.71
2023-04-05T03:52:12.028Z,-1.71
2023-04-05T03:53:11.966Z,-1.70
2023-04-05T03:54:11.854Z,-1.76
2023-04-05T03:55:32.739Z,-1.71
2023-04-05T03:56:11.674Z,-1.76
2023-04-05T03:57:11.590Z,-1.70
2023-04-05T03:58:11.495Z,-1.71
2023-04-05T03:59:11.442Z,-1.71
2023-04-05T04:00:11.319Z,-1.73
2023-04-05T04:01:32.222Z,-1.74
2023-04-05T04:02:11.204Z,-1.70
2023-04-05T04:03:11.099Z,-1.81
2023-04-05T04:04:10.968Z,-1.84
2023-04-05T04:05:10.899Z,-1.76
2023-04-05T04:06:10.848Z,-1.88
2023-04-05T04:07:31.680Z,-1.86
2023-04-05T04:08:10.695Z,-1.94
2023-04-05T04:09:10.525Z,-1.88
2023-04-05T04:10:10.438Z,-1.83
2023-04-05T04:11:10.353Z,-1.86
2023-04-05T04:12:10.261Z,-1.91
2023-04-05T04:13:31.154Z,-1.86
2023-04-05T04:14:10.088Z,-1.81
2023-04-05T04:15:09.997Z,-1.84
2023-04-05T04:16:09.948Z,-1.86
2023-04-05T04:17:09.823Z,-1.83
2023-04-05T04:18:09.870Z,-1.86
2023-04-05T04:19:30.625Z,-1.95
2023-04-05T04:20:09.561Z,-1.98
2023-04-05T04:21:09.484Z,-1.92
2023-04-05T04:22:09.377Z,-1.88
2023-04-05T04:23:09.295Z,-1.95
2023-04-05T04:24:09.209Z,-1.88
2023-04-05T04:25:30.094Z,-1.95
2023-04-05T04:26:09.028Z,-2.02
2023-04-05T04:27:08.936Z,-2.06
2023-04-05T04:28:08.846Z,-2.07
2023-04-05T04:29:08.796Z,-1.99
2023-04-05T04:30:08.679Z,-1.99
2023-04-05T04:31:29.596Z,-2.01
2023-04-05T04:32:08.519Z,-1.98
2023-04-05T04:33:09.204Z,-2.01
2023-04-05T04:34:08.324Z,-1.99
2023-04-05T04:35:08.232Z,-1.94
2023-04-05T04:36:08.204Z,-1.97
2023-04-05T04:37:29.038Z,-2.13
2023-04-05T04:38:08.064Z,-2.13
2023-04-05T04:39:07.880Z,-2.09
2023-04-05T04:40:07.795Z,-2.16
2023-04-05T04:41:07.733Z,-2.09
2023-04-05T04:42:07.621Z,-2.10
2023-04-05T04:43:28.503Z,-2.10
2023-04-05T04:44:07.440Z,-2.13
2023-04-05T04:45:07.352Z,-2.12
2023-04-05T04:46:07.290Z,-2.13
2023-04-05T04:47:07.183Z,-2.15
2023-04-05T04:48:07.169Z,-2.27
2023-04-05T04:49:27.992Z,-2.35
2023-04-05T04:50:06.908Z,-2.38
2023-04-05T04:51:06.828Z,-2.45
2023-04-05T04:52:06.735Z,-2.42
2023-04-05T04:53:06.673Z,-2.32
2023-04-05T04:54:06.572Z,-2.46
2023-04-05T04:55:27.456Z,-2.28
2023-04-05T04:56:06.386Z,-2.32
2023-04-05T04:57:06.302Z,-2.34
2023-04-05T04:58:06.246Z,-2.34
2023-04-05T04:59:06.151Z,-2.28
2023-04-05T05:00:06.020Z,-2.45
2023-04-05T05:01:26.969Z,-2.32
2023-04-05T05:02:05.851Z,-2.38
2023-04-05T05:03:05.802Z,-2.32
2023-04-05T05:04:05.765Z,-2.28
2023-04-05T05:05:05.589Z,-2.35
2023-04-05T05:06:05.501Z,-2.32
2023-04-05T05:07:26.390Z,-2.34
2023-04-05T05:08:05.325Z,-2.25
2023-04-05T05:09:05.235Z,-2.25
2023-04-05T05:10:05.149Z,-2.22
2023-04-05T05:11:05.064Z,-2.20
2023-04-05T05:12:04.972Z,-2.23
2023-04-05T05:13:25.861Z,-2.27
2023-04-05T05:14:04.805Z,-2.28
2023-04-05T05:15:04.709Z,-2.30
2023-04-05T05:16:04.682Z,-2.19
2023-04-05T05:17:04.547Z,-2.13
2023-04-05T05:18:04.527Z,-2.16
2023-04-05T05:19:25.332Z,-2.10
2023-04-05T05:20:04.265Z,-2.16
2023-04-05T05:21:04.181Z,-2.15
2023-04-05T05:22:04.093Z,-2.13
2023-04-05T05:23:04.037Z,-2.10
2023-04-05T05:24:03.921Z,-2.12
2023-04-05T05:25:24.825Z,-2.15
2023-04-05T05:26:03.742Z,-2.07
2023-04-05T05:27:03.659Z,-2.12
2023-04-05T05:28:03.574Z,-2.02
2023-04-05T05:29:03.498Z,-2.04
2023-04-05T05:30:03.384Z,-2.01
2023-04-05T05:31:24.314Z,-2.06
2023-04-05T05:32:03.210Z,-2.07
2023-04-05T05:33:03.200Z,-1.97
2023-04-05T05:34:03.036Z,-1.92
2023-04-05T05:35:02.942Z,-1.92
2023-04-05T05:36:02.864Z,-1.89
2023-04-05T05:37:23.740Z,-1.95
2023-04-05T05:38:02.669Z,-1.94
2023-04-05T05:39:02.587Z,-1.84
2023-04-05T05:40:02.501Z,-1.95
2023-04-05T05:41:02.406Z,-1.94
2023-04-05T05:42:02.317Z,-1.97
2023-04-05T05:43:23.209Z,-1.88
2023-04-05T05:44:02.138Z,-1.91
2023-04-05T05:45:02.056Z,-1.81
2023-04-05T05:46:02.063Z,-1.86
2023-04-05T05:47:01.875Z,-1.77
2023-04-05T05:48:01.805Z,-1.74
2023-04-05T05:49:22.679Z,-1.68
2023-04-05T05:50:01.616Z,-1.76
2023-04-05T05:51:01.529Z,-1.73
2023-04-05T05:52:01.437Z,-1.66
2023-04-05T05:53:01.907Z,-1.68
2023-04-05T05:54:01.273Z,-1.66
2023-04-05T05:55:22.146Z,-1.52
2023-04-05T05:56:01.079Z,-1.62
2023-04-05T05:57:00.995Z,-1.56
2023-04-05T05:58:00.915Z,-1.59
2023-04-05T05:59:00.848Z,-1.60
2023-04-05T06:00:00.738Z,-1.56
2023-04-05T06:01:21.624Z,-1.50
2023-04-05T06:02:00.552Z,-1.48
2023-04-05T06:03:00.570Z,-1.42
2023-04-05T06:04:00.486Z,-1.38
2023-04-05T06:05:00.374Z,-1.42
2023-04-05T06:06:00.205Z,-1.34
2023-04-05T06:07:21.115Z,-1.32
2023-04-05T06:08:00.043Z,-1.23
2023-04-05T06:08:59.981Z,-1.26
2023-04-05T06:09:59.941Z,-1.22
2023-04-05T06:10:59.759Z,-1.23
2023-04-05T06:11:59.680Z,-1.20
2023-04-05T06:13:20.575Z,-1.35
2023-04-05T06:13:59.501Z,-1.20
2023-04-05T06:14:59.421Z,-1.13
2023-04-05T06:15:59.326Z,-1.13
2023-04-05T06:16:59.247Z,-1.13
2023-04-05T06:17:59.177Z,-1.11
2023-04-05T06:19:20.056Z,-1.08
2023-04-05T06:19:58.970Z,-1.08
2023-04-05T06:20:58.896Z,-1.05
2023-04-05T06:21:58.796Z,-0.93
2023-04-05T06:22:58.710Z,-1.01
2023-04-05T06:23:58.620Z,-0.87
2023-04-05T06:25:19.509Z,-0.91
2023-04-05T06:25:58.443Z,-0.79
2023-04-05T06:26:58.359Z,-0.80
2023-04-05T06:27:58.261Z,-0.79
2023-04-05T06:28:58.175Z,-0.72
2023-04-05T06:29:58.083Z,-0.68
2023-04-05T06:31:19.007Z,-0.66
2023-04-05T06:31:58.102Z,-0.62
2023-04-05T06:32:57.854Z,-0.59
2023-04-05T06:33:57.738Z,-0.58
2023-04-05T06:34:57.650Z,-0.58
2023-04-05T06:35:57.620Z,-0.43
2023-04-05T06:37:18.482Z,-0.37
2023-04-05T06:37:57.390Z,-0.35
2023-04-05T06:38:57.305Z,-0.40
2023-04-05T06:39:57.211Z,-0.32
2023-04-05T06:40:57.122Z,-0.28
2023-04-05T06:41:57.030Z,-0.19
2023-04-05T06:43:17.933Z,-0.17
2023-04-05T06:43:56.969Z,-0.07
2023-04-05T06:44:56.770Z,0.01
2023-04-05T06:45:56.725Z,0.01
2023-04-05T06:46:56.594Z,0.11
2023-04-05T06:47:56.517Z,0.17
2023-04-05T06:49:17.401Z,0.27
2023-04-05T06:49:56.326Z,0.27
2023-04-05T06:50:56.249Z,0.32
2023-04-05T06:51:56.154Z,0.39
2023-04-05T06:52:56.068Z,0.45
2023-04-05T06:53:55.977Z,0.45
2023-04-05T06:55:16.877Z,0.56
2023-04-05T06:55:55.808Z,0.50
2023-04-05T06:56:55.721Z,0.62
2023-04-05T06:57:55.624Z,0.64
2023-04-05T06:58:55.555Z,0.74
2023-04-05T06:59:55.451Z,0.75
2023-04-05T07:01:16.358Z,0.86
2023-04-05T07:01:55.290Z,1.01
2023-04-05T07:02:55.210Z,1.00
2023-04-05T07:03:55.129Z,0.92
2023-04-05T07:04:55.052Z,0.90
2023-04-05T07:05:54.934Z,0.98
2023-04-05T07:07:15.875Z,1.02
2023-04-05T07:07:54.752Z,1.05
2023-04-05T07:08:54.716Z,1.12
2023-04-05T07:09:54.585Z,1.11
2023-04-05T07:10:54.503Z,1.19
2023-04-05T07:11:54.405Z,1.22
2023-04-05T07:13:15.306Z,1.12
2023-04-05T07:13:54.239Z,1.23
2023-04-05T07:14:54.145Z,1.26
2023-04-05T07:15:54.100Z,1.28
2023-04-05T07:16:53.976Z,1.20
2023-04-05T07:17:53.919Z,1.30
2023-04-05T07:19:14.776Z,1.36
2023-04-05T07:19:53.711Z,1.43
2023-04-05T07:20:53.634Z,1.41
2023-04-05T07:21:53.542Z,1.48
2023-04-05T07:22:53.456Z,1.46
2023-04-05T07:23:53.364Z,1.52
2023-04-05T07:25:14.267Z,1.56
2023-04-05T07:25:53.187Z,1.61
2023-04-05T07:26:53.112Z,1.74
2023-04-05T07:27:53.017Z,1.69
2023-04-05T07:28:52.935Z,1.72
2023-04-05T07:29:53.046Z,1.83
2023-04-05T07:31:13.756Z,1.82
2023-04-05T07:31:52.707Z,1.95
2023-04-05T07:32:52.637Z,2.09
2023-04-05T07:33:52.498Z,2.10
2023-04-05T07:34:52.420Z,2.20
2023-04-05T07:35:52.394Z,2.21
2023-04-05T07:37:13.220Z,2.30
2023-04-05T07:37:52.155Z,2.37
2023-04-05T07:38:52.067Z,2.37
2023-04-05T07:39:51.979Z,2.39
2023-04-05T07:40:51.899Z,2.49
2023-04-05T07:41:51.813Z,2.60
2023-04-05T07:43:12.700Z,2.59
2023-04-05T07:43:51.645Z,2.80
2023-04-05T07:44:51.550Z,2.91
2023-04-05T07:45:51.460Z,3.03
2023-04-05T07:46:51.425Z,2.98
2023-04-05T07:47:51.338Z,2.93
2023-04-05T07:49:12.197Z,3.09
2023-04-05T07:49:51.115Z,3.04
2023-04-05T07:50:51.039Z,3.10
2023-04-05T07:51:50.948Z,3.13
2023-04-05T07:52:50.864Z,3.39
2023-04-05T07:53:50.775Z,3.51
2023-04-05T07:55:11.671Z,3.75
2023-04-05T07:55:50.611Z,3.83
2023-04-05T07:56:50.526Z,3.98
2023-04-05T07:57:50.432Z,4.12
2023-04-05T07:58:50.361Z,4.37
2023-04-05T07:59:50.260Z,4.46
2023-04-05T08:01:11.159Z,4.65
2023-04-05T08:01:50.091Z,4.84
2023-04-05T08:02:50.191Z,5.00
2023-04-05T08:03:50.033Z,5.13
2023-04-05T08:04:49.848Z,5.05
2023-04-05T08:05:49.746Z,5.28
2023-04-05T08:07:10.645Z,5.42
2023-04-05T08:07:49.592Z,5.44
2023-04-05T08:08:49.491Z,5.60
2023-04-05T08:09:49.411Z,5.67
2023-04-05T08:10:49.329Z,5.78
2023-04-05T08:11:49.242Z,5.80
2023-04-05T08:13:10.131Z,5.90
2023-04-05T08:13:49.095Z,6.11
2023-04-05T08:14:48.982Z,6.13
2023-04-05T08:15:48.894Z,6.24
2023-04-05T08:16:48.826Z,6.22
2023-04-05T08:17:48.785Z,6.24
2023-04-05T08:19:09.624Z,6.30
2023-04-05T08:19:48.564Z,6.41
2023-04-05T08:20:48.473Z,6.60
2023-04-05T08:21:48.397Z,6.63
2023-04-05T08:22:48.320Z,6.75
2023-04-05T08:23:48.234Z,6.72
2023-04-05T08:25:09.124Z,6.80
2023-04-05T08:25:48.063Z,6.94
2023-04-05T08:26:48.081Z,7.03
2023-04-05T08:27:47.889Z,6.98
2023-04-05T08:28:47.805Z,7.02
2023-04-05T08:29:47.725Z,6.94
2023-04-05T08:31:08.619Z,6.90
2023-04-05T08:31:47.577Z,6.73
2023-04-05T08:32:47.503Z,6.65
2023-04-05T08:33:47.394Z,6.66
2023-04-05T08:34:47.305Z,6.68
2023-04-05T08:35:47.228Z,6.65
2023-04-05T08:37:08.108Z,6.63
2023-04-05T08:37:47.050Z,6.68
2023-04-05T08:38:46.962Z,6.66
2023-04-05T08:39:46.885Z,6.69
2023-04-05T08:40:46.806Z,6.68
2023-04-05T08:41:46.722Z,6.78
2023-04-05T08:43:07.606Z,6.86
2023-04-05T08:43:46.558Z,6.87
2023-04-05T08:44:46.496Z,6.90
2023-04-05T08:45:46.413Z,6.94
2023-04-05T08:46:46.297Z,6.93
2023-04-05T08:47:46.354Z,6.99
2023-04-05T08:49:07.128Z,6.88
2023-04-05T08:49:46.065Z,7.01
2023-04-05T08:50:45.966Z,6.96
2023-04-05T08:51:45.890Z,6.99
2023-04-05T08:52:45.804Z,7.08
2023-04-05T08:53:45.727Z,7.17
2023-04-05T08:55:06.653Z,7.31
2023-04-05T08:55:45.556Z,7.31
2023-04-05T08:56:45.486Z,7.55
2023-04-05T08:57:45.390Z,7.64
2023-04-05T08:58:45.305Z,7.68
2023-04-05T08:59:45.228Z,7.85
2023-04-05T09:01:06.138Z,7.90
2023-04-05T09:01:45.200Z,7.63
2023-04-05T09:02:45.012Z,7.73
2023-04-05T09:03:44.903Z,7.79
2023-04-05T09:04:45.015Z,7.72
2023-04-05T09:05:44.730Z,7.85
2023-04-05T09:07:05.636Z,7.91
2023-04-05T09:07:44.564Z,8.06
2023-04-05T09:08:44.480Z,8.24
2023-04-05T09:09:44.398Z,8.29
2023-04-05T09:10:44.324Z,8.39
2023-04-05T09:11:44.241Z,8.44
2023-04-05T09:13:05.676Z,8.52
2023-04-05T09:13:44.084Z,8.36
2023-04-05T09:14:43.990Z,8.21
2023-04-05T09:15:43.908Z,8.00
2023-04-05T09:16:43.899Z,7.90
2023-04-05T09:17:43.754Z,7.67
2023-04-05T09:19:04.641Z,7.57
2023-04-05T09:19:43.592Z,7.44
2023-04-05T09:20:43.491Z,7.53
2023-04-05T09:21:43.416Z,7.62
2023-04-05T09:22:43.333Z,7.62
2023-04-05T09:23:43.259Z,7.70
2023-04-05T09:25:04.144Z,7.68
2023-04-05T09:25:43.090Z,7.73
2023-04-05T09:26:42.997Z,7.88
2023-04-05T09:27:42.924Z,7.97
2023-04-05T09:28:42.834Z,7.97
2023-04-05T09:29:42.750Z,8.01
2023-04-05T09:31:03.705Z,7.88
2023-04-05T09:31:42.642Z,7.83
2023-04-05T09:32:42.543Z,7.88
2023-04-05T09:33:42.426Z,7.83
2023-04-05T09:34:42.350Z,8.09
2023-04-05T09:35:42.278Z,8.07
2023-04-05T09:37:03.162Z,8.19
2023-04-05T09:37:42.100Z,8.19
2023-04-05T09:38:42.022Z,8.29
2023-04-05T09:39:41.931Z,8.47
2023-04-05T09:40:42.036Z,8.60
2023-04-05T09:41:41.771Z,8.61
2023-04-05T09:43:02.660Z,8.72
2023-04-05T09:43:41.620Z,8.70
2023-04-05T09:44:41.526Z,8.73
2023-04-05T09:45:41.449Z,8.79
2023-04-05T09:46:41.487Z,8.76
2023-04-05T09:47:41.298Z,8.75
2023-04-05T09:49:02.200Z,8.85
2023-04-05T09:49:41.118Z,8.79
2023-04-05T09:50:41.364Z,8.76
2023-04-05T09:51:40.975Z,8.55
2023-04-05T09:52:40.870Z,8.52
2023-04-05T09:53:40.792Z,8.36
2023-04-05T09:55:01.680Z,8.24
2023-04-05T09:55:42.681Z,8.19
2023-04-05T09:56:40.547Z,8.21
2023-04-05T09:57:40.458Z,8.18
2023-04-05T09:58:40.375Z,8.18
2023-04-05T09:59:40.289Z,8.15
2023-04-05T10:01:13.931Z,8.30
2023-04-05T10:01:41.623Z,8.58
2023-04-05T10:02:40.153Z,8.72
2023-04-05T10:03:40.070Z,8.91
2023-04-05T10:04:39.880Z,9.06
2023-04-05T10:05:39.798Z,9.03
2023-04-05T10:07:00.752Z,9.09
2023-04-05T10:07:39.647Z,9.12
2023-04-05T10:08:39.553Z,9.10
2023-04-05T10:09:39.476Z,9.05
2023-04-05T10:10:39.687Z,8.91
2023-04-05T10:11:39.353Z,8.79
2023-04-05T10:13:00.201Z,8.80
2023-04-05T10:13:39.141Z,9.09
2023-04-05T10:14:39.054Z,9.32
2023-04-05T10:15:38.981Z,9.43
2023-04-05T10:16:38.922Z,9.58
2023-04-05T10:17:38.871Z,9.79
2023-04-05T10:18:59.708Z,9.79
2023-04-05T10:19:38.667Z,9.82
2023-04-05T10:20:38.659Z,9.83
2023-04-05T10:21:38.487Z,9.75
2023-04-05T10:22:38.404Z,9.65
2023-04-05T10:23:38.334Z,9.61
2023-04-05T10:24:59.219Z,9.50
2023-04-05T10:25:38.160Z,9.56
2023-04-05T10:26:38.080Z,9.49
2023-04-05T10:27:38.008Z,9.35
2023-04-05T10:28:37.915Z,9.34
2023-04-05T10:29:37.839Z,9.31
2023-04-05T10:30:58.771Z,9.29
2023-04-05T10:31:38.634Z,9.25
2023-04-05T10:32:37.667Z,9.19
2023-04-05T10:33:39.987Z,9.24
2023-04-05T10:34:37.439Z,9.24
2023-04-05T10:35:37.362Z,9.29
2023-04-05T10:36:58.300Z,9.37
2023-04-05T10:37:37.175Z,9.38
2023-04-05T10:38:37.107Z,9.55
2023-04-05T10:39:37.026Z,9.72
2023-04-05T10:40:36.941Z,9.82
2023-04-05T10:41:36.852Z,10.01
2023-04-05T10:42:57.796Z,10.18
2023-04-05T10:43:36.762Z,10.37
2023-04-05T10:44:36.617Z,10.49
2023-04-05T10:45:36.547Z,10.71
2023-04-05T10:46:36.539Z,10.75
2023-04-05T10:47:36.385Z,10.84
2023-04-05T10:48:57.260Z,10.93
2023-04-05T10:49:36.213Z,10.84
2023-04-05T10:50:36.126Z,10.85
2023-04-05T10:51:36.094Z,10.98
2023-04-05T10:52:35.954Z,11.11
2023-04-05T10:53:35.876Z,11.08
2023-04-05T10:54:56.773Z,11.06
2023-04-05T10:55:35.717Z,11.14
2023-04-05T10:56:35.641Z,11.16
2023-04-05T10:57:35.561Z,11.24
2023-04-05T10:58:35.470Z,11.20
2023-04-05T10:59:35.482Z,11.11
2023-04-05T11:00:56.332Z,10.73
2023-04-05T11:01:35.325Z,10.60
2023-04-05T11:02:35.213Z,10.53
2023-04-05T11:03:35.109Z,10.67
2023-04-05T11:04:35.079Z,10.88
2023-04-05T11:05:34.950Z,11.02
2023-04-05T11:06:55.809Z,11.24
2023-04-05T11:07:34.752Z,11.38
2023-04-05T11:08:34.668Z,11.60
2023-04-05T11:09:34.599Z,11.67
2023-04-05T11:10:34.529Z,11.87
2023-04-05T11:11:34.431Z,11.93
2023-04-05T11:12:55.340Z,11.90
2023-04-05T11:13:34.276Z,11.94
2023-04-05T11:14:34.200Z,11.97
2023-04-05T11:15:34.112Z,12.08
2023-04-05T11:16:34.066Z,12.12
2023-04-05T11:17:33.984Z,12.16
2023-04-05T11:18:54.901Z,12.24
2023-04-05T11:19:33.791Z,12.08
2023-04-05T11:20:33.725Z,12.15
2023-04-05T11:21:33.636Z,12.12
2023-04-05T11:22:33.552Z,12.03
2023-04-05T11:23:33.476Z,12.12
2023-04-05T11:24:54.374Z,12.15
2023-04-05T11:25:33.315Z,12.34
2023-04-05T11:26:33.239Z,11.93
2023-04-05T11:27:33.156Z,11.41
2023-04-05T11:28:33.072Z,10.91
2023-04-05T11:29:32.995Z,10.69
2023-04-05T11:30:53.917Z,10.55
2023-04-05T11:31:32.946Z,10.37
2023-04-05T11:32:32.762Z,10.10
2023-04-05T11:33:32.681Z,9.90
2023-04-05T11:34:32.597Z,9.98
2023-04-05T11:35:32.557Z,9.90
2023-04-05T11:36:53.507Z,9.86
2023-04-05T11:37:32.357Z,9.92
2023-04-05T11:38:32.273Z,9.80
2023-04-05T11:39:32.195Z,9.92
2023-04-05T11:40:32.135Z,10.01
2023-04-05T11:41:32.047Z,9.96
2023-04-05T11:42:52.937Z,9.89
2023-04-05T11:43:31.878Z,10.10
2023-04-05T11:44:31.801Z,10.06
2023-04-05T11:45:32.331Z,10.11
2023-04-05T11:46:31.744Z,10.10
2023-04-05T11:47:31.588Z,10.37
2023-04-05T11:48:52.469Z,10.55
2023-04-05T11:49:31.445Z,10.55
2023-04-05T11:50:31.316Z,10.65
2023-04-05T11:51:31.241Z,10.74
2023-04-05T11:52:31.161Z,10.95
2023-04-05T11:53:31.084Z,11.21
2023-04-05T11:54:51.990Z,11.24
2023-04-05T11:55:30.929Z,11.41
2023-04-05T11:56:30.840Z,11.49
2023-04-05T11:57:30.780Z,11.54
2023-04-05T11:58:30.680Z,11.69
2023-04-05T11:59:30.687Z,11.79
2023-04-05T12:00:51.507Z,12.00
2023-04-05T12:01:30.454Z,12.09
2023-04-05T12:02:30.459Z,12.30
2023-04-05T12:03:30.360Z,12.52
2023-04-05T12:04:30.276Z,12.53
2023-04-05T12:05:30.126Z,12.53
2023-04-05T12:06:51.021Z,12.49
2023-04-05T12:07:29.968Z,12.24
2023-04-05T12:08:29.884Z,12.28
2023-04-05T12:09:29.803Z,12.16
2023-04-05T12:10:29.724Z,11.87
2023-04-05T12:11:29.658Z,11.57
2023-04-05T12:12:50.566Z,11.51
2023-04-05T12:13:29.502Z,11.34
2023-04-05T12:14:29.409Z,11.13
2023-04-05T12:15:29.328Z,11.06
2023-04-05T12:16:29.322Z,10.85
2023-04-05T12:17:29.201Z,11.05
2023-04-05T12:18:50.075Z,11.05
2023-04-05T12:19:29.013Z,10.99
2023-04-05T12:20:28.933Z,10.96
2023-04-05T12:21:28.854Z,10.98
2023-04-05T12:22:28.775Z,10.92
2023-04-05T12:23:28.706Z,11.03
2023-04-05T12:24:49.600Z,11.00
2023-04-05T12:25:28.540Z,11.13
2023-04-05T12:26:28.483Z,11.08
2023-04-05T12:27:28.402Z,11.28
2023-04-05T12:28:28.302Z,11.29
2023-04-05T12:29:28.222Z,11.34
2023-04-05T12:30:49.123Z,11.46
2023-04-05T12:31:28.111Z,11.57
2023-04-05T12:32:28.021Z,11.79
2023-04-05T12:33:27.917Z,12.00
2023-04-05T12:34:27.839Z,12.16
2023-04-05T12:35:27.744Z,12.21
2023-04-05T12:36:48.656Z,12.18
2023-04-05T12:37:27.586Z,12.06
2023-04-05T12:38:27.517Z,11.71
2023-04-05T12:39:27.427Z,11.38
2023-04-05T12:40:27.368Z,11.24
2023-04-05T12:41:27.265Z,11.18
2023-04-05T12:42:48.175Z,11.11
2023-04-05T12:43:27.115Z,11.16
2023-04-05T12:44:27.078Z,11.10
2023-04-05T12:45:26.955Z,11.11
2023-04-05T12:46:26.911Z,11.13
2023-04-05T12:47:26.801Z,11.32
2023-04-05T12:48:47.700Z,11.35
2023-04-05T12:49:26.639Z,11.35
2023-04-05T12:50:26.558Z,11.47
2023-04-05T12:51:26.480Z,11.61
2023-04-05T12:52:26.401Z,11.72
2023-04-05T12:53:26.314Z,11.72
2023-04-05T12:54:47.226Z,11.54
2023-04-05T12:55:26.164Z,11.34
2023-04-05T12:56:26.080Z,11.13
2023-04-05T12:57:26.002Z,11.16
2023-04-05T12:58:25.920Z,11.29
2023-04-05T12:59:25.865Z,11.32
2023-04-05T13:00:46.753Z,11.36
2023-04-05T13:01:25.764Z,11.32